sensor_id;sensor_type;location;lat;lon;timestamp;P1;durP1;ratioP1;P2;durP2;ratioP2
39738;SDS011;25422;48.286;8.484;2022-07-23T00:02:21;10.20;;;8.68;;
39738;SDS011;25422;48.286;8.484;2022-07-23T00:04:46;9.88;;;8.88;;
39738;SDS011;25422;48.286;8.484;2022-07-23T00:07:11;10.23;;;9.18;;
39738;SDS011;25422;48.286;8.484;2022-07-23T00:09:37;10.48;;;9.38;;
39738;SDS011;25422;48.286;8.484;2022-07-23T00:12:08;11.40;;;8.60;;
39738;SDS011;25422;48.286;8.484;2022-07-23T00:14:33;9.30;;;8.30;;
39738;SDS011;25422;48.286;8.484;2022-07-23T00:16:59;8.43;;;7.55;;
39738;SDS011;25422;48.286;8.484;2022-07-23T00:19:24;7.78;;;7.07;;
39738;SDS011;25422;48.286;8.484;2022-07-23T00:21:50;7.28;;;6.57;;
39738;SDS011;25422;48.286;8.484;2022-07-23T00:24:15;7.00;;;6.30;;
39738;SDS011;25422;48.286;8.484;2022-07-23T00:26:40;8.73;;;6.72;;
39738;SDS011;25422;48.286;8.484;2022-07-23T00:29:06;7.00;;;6.30;;
39738;SDS011;25422;48.286;8.484;2022-07-23T00:31:31;8.35;;;6.78;;
39738;SDS011;25422;48.286;8.484;2022-07-23T00:33:56;7.75;;;6.57;;
39738;SDS011;25422;48.286;8.484;2022-07-23T00:36:25;7.25;;;6.53;;
39738;SDS011;25422;48.286;8.484;2022-07-23T00:38:50;7.05;;;6.43;;
39738;SDS011;25422;48.286;8.484;2022-07-23T00:41:15;8.98;;;7.18;;
39738;SDS011;25422;48.286;8.484;2022-07-23T00:43:41;9.02;;;7.10;;
39738;SDS011;25422;48.286;8.484;2022-07-23T00:46:06;7.30;;;6.60;;
39738;SDS011;25422;48.286;8.484;2022-07-23T00:48:32;7.35;;;6.65;;
39738;SDS011;25422;48.286;8.484;2022-07-23T00:50:57;8.63;;;7.25;;
39738;SDS011;25422;48.286;8.484;2022-07-23T00:53:22;7.65;;;6.90;;
39738;SDS011;25422;48.286;8.484;2022-07-23T00:55:48;9.35;;;7.47;;
39738;SDS011;25422;48.286;8.484;2022-07-23T00:58:14;8.45;;;7.20;;
39738;SDS011;25422;48.286;8.484;2022-07-23T01:00:41;10.05;;;6.85;;
39738;SDS011;25422;48.286;8.484;2022-07-23T01:03:06;9.00;;;7.25;;
39738;SDS011;25422;48.286;8.484;2022-07-23T01:05:32;8.23;;;7.45;;
39738;SDS011;25422;48.286;8.484;2022-07-23T01:07:57;9.35;;;7.65;;
39738;SDS011;25422;48.286;8.484;2022-07-23T01:10:23;8.82;;;7.20;;
39738;SDS011;25422;48.286;8.484;2022-07-23T01:12:56;8.73;;;7.80;;
39738;SDS011;25422;48.286;8.484;2022-07-23T01:15:21;9.88;;;8.15;;
39738;SDS011;25422;48.286;8.484;2022-07-23T01:17:47;10.68;;;8.95;;
39738;SDS011;25422;48.286;8.484;2022-07-23T01:20:12;13.77;;;9.60;;
39738;SDS011;25422;48.286;8.484;2022-07-23T01:22:37;11.57;;;9.70;;
39738;SDS011;25422;48.286;8.484;2022-07-23T01:25:03;12.70;;;10.38;;
39738;SDS011;25422;48.286;8.484;2022-07-23T01:27:29;14.13;;;10.00;;
39738;SDS011;25422;48.286;8.484;2022-07-23T01:29:54;11.93;;;10.70;;
39738;SDS011;25422;48.286;8.484;2022-07-23T01:32:21;11.35;;;10.25;;
39738;SDS011;25422;48.286;8.484;2022-07-23T01:34:47;12.45;;;9.98;;
39738;SDS011;25422;48.286;8.484;2022-07-23T01:37:12;11.85;;;10.65;;
39738;SDS011;25422;48.286;8.484;2022-07-23T01:39:37;12.80;;;10.73;;
39738;SDS011;25422;48.286;8.484;2022-07-23T01:42:03;11.48;;;10.32;;
39738;SDS011;25422;48.286;8.484;2022-07-23T01:44:28;12.93;;;10.73;;
39738;SDS011;25422;48.286;8.484;2022-07-23T01:46:53;12.40;;;10.75;;
39738;SDS011;25422;48.286;8.484;2022-07-23T01:49:21;13.52;;;10.80;;
39738;SDS011;25422;48.286;8.484;2022-07-23T01:51:47;15.20;;;11.93;;
39738;SDS011;25422;48.286;8.484;2022-07-23T01:54:30;14.18;;;11.45;;
39738;SDS011;25422;48.286;8.484;2022-07-23T01:56:57;15.05;;;10.98;;
39738;SDS011;25422;48.286;8.484;2022-07-23T01:59:23;12.27;;;11.10;;
39738;SDS011;25422;48.286;8.484;2022-07-23T02:01:49;12.15;;;10.95;;
39738;SDS011;25422;48.286;8.484;2022-07-23T02:04:16;12.45;;;11.18;;
39738;SDS011;25422;48.286;8.484;2022-07-23T02:06:42;12.15;;;10.48;;
39738;SDS011;25422;48.286;8.484;2022-07-23T02:09:07;12.75;;;10.93;;
39738;SDS011;25422;48.286;8.484;2022-07-23T02:11:32;10.55;;;9.38;;
39738;SDS011;25422;48.286;8.484;2022-07-23T02:13:58;11.75;;;9.40;;
39738;SDS011;25422;48.286;8.484;2022-07-23T02:16:23;13.30;;;9.15;;
39738;SDS011;25422;48.286;8.484;2022-07-23T02:18:48;10.63;;;9.60;;
39738;SDS011;25422;48.286;8.484;2022-07-23T02:21:14;10.43;;;9.30;;
39738;SDS011;25422;48.286;8.484;2022-07-23T02:23:39;9.82;;;8.93;;
39738;SDS011;25422;48.286;8.484;2022-07-23T02:26:05;10.27;;;9.20;;
39738;SDS011;25422;48.286;8.484;2022-07-23T02:28:30;12.25;;;9.43;;
39738;SDS011;25422;48.286;8.484;2022-07-23T02:30:55;11.73;;;8.68;;
39738;SDS011;25422;48.286;8.484;2022-07-23T02:33:21;13.95;;;9.00;;
39738;SDS011;25422;48.286;8.484;2022-07-23T02:35:46;9.98;;;8.93;;
39738;SDS011;25422;48.286;8.484;2022-07-23T02:38:12;9.55;;;8.05;;
39738;SDS011;25422;48.286;8.484;2022-07-23T02:40:37;10.00;;;9.00;;
39738;SDS011;25422;48.286;8.484;2022-07-23T02:43:02;11.88;;;8.63;;
39738;SDS011;25422;48.286;8.484;2022-07-23T02:45:28;12.30;;;9.18;;
39738;SDS011;25422;48.286;8.484;2022-07-23T02:47:53;10.38;;;8.75;;
39738;SDS011;25422;48.286;8.484;2022-07-23T02:50:18;8.75;;;7.68;;
39738;SDS011;25422;48.286;8.484;2022-07-23T02:52:44;13.05;;;8.40;;
39738;SDS011;25422;48.286;8.484;2022-07-23T02:55:09;9.05;;;8.15;;
39738;SDS011;25422;48.286;8.484;2022-07-23T02:57:35;10.40;;;7.85;;
39738;SDS011;25422;48.286;8.484;2022-07-23T03:00:01;9.18;;;8.27;;
39738;SDS011;25422;48.286;8.484;2022-07-23T03:02:27;9.45;;;8.55;;
39738;SDS011;25422;48.286;8.484;2022-07-23T03:04:52;9.80;;;8.13;;
39738;SDS011;25422;48.286;8.484;2022-07-23T03:07:18;11.10;;;9.38;;
39738;SDS011;25422;48.286;8.484;2022-07-23T03:09:43;10.57;;;8.73;;
39738;SDS011;25422;48.286;8.484;2022-07-23T03:12:08;9.27;;;8.27;;
39738;SDS011;25422;48.286;8.484;2022-07-23T03:14:34;12.13;;;9.00;;
39738;SDS011;25422;48.286;8.484;2022-07-23T03:16:59;11.30;;;9.10;;
39738;SDS011;25422;48.286;8.484;2022-07-23T03:19:25;10.25;;;8.88;;
39738;SDS011;25422;48.286;8.484;2022-07-23T03:21:51;10.30;;;9.23;;
39738;SDS011;25422;48.286;8.484;2022-07-23T03:24:16;10.52;;;9.40;;
39738;SDS011;25422;48.286;8.484;2022-07-23T03:26:43;11.68;;;9.60;;
39738;SDS011;25422;48.286;8.484;2022-07-23T03:29:09;11.80;;;9.65;;
39738;SDS011;25422;48.286;8.484;2022-07-23T03:31:34;11.45;;;9.73;;
39738;SDS011;25422;48.286;8.484;2022-07-23T03:33:59;11.13;;;9.60;;
39738;SDS011;25422;48.286;8.484;2022-07-23T03:36:25;11.52;;;9.40;;
39738;SDS011;25422;48.286;8.484;2022-07-23T03:38:51;14.57;;;10.20;;
39738;SDS011;25422;48.286;8.484;2022-07-23T03:41:16;15.38;;;9.77;;
39738;SDS011;25422;48.286;8.484;2022-07-23T03:43:42;12.13;;;10.00;;
39738;SDS011;25422;48.286;8.484;2022-07-23T03:46:07;12.68;;;10.40;;
39738;SDS011;25422;48.286;8.484;2022-07-23T03:48:33;10.77;;;9.70;;
39738;SDS011;25422;48.286;8.484;2022-07-23T03:50:58;14.05;;;9.82;;
39738;SDS011;25422;48.286;8.484;2022-07-23T03:53:24;14.40;;;9.45;;
39738;SDS011;25422;48.286;8.484;2022-07-23T03:55:49;10.43;;;9.23;;
39738;SDS011;25422;48.286;8.484;2022-07-23T03:58:14;12.20;;;10.10;;
39738;SDS011;25422;48.286;8.484;2022-07-23T04:00:39;11.48;;;10.25;;
39738;SDS011;25422;48.286;8.484;2022-07-23T04:03:05;10.13;;;9.23;;
39738;SDS011;25422;48.286;8.484;2022-07-23T04:05:30;10.50;;;9.48;;
39738;SDS011;25422;48.286;8.484;2022-07-23T04:07:55;10.27;;;9.15;;
39738;SDS011;25422;48.286;8.484;2022-07-23T04:10:21;10.02;;;9.10;;
39738;SDS011;25422;48.286;8.484;2022-07-23T04:12:46;11.82;;;9.07;;
39738;SDS011;25422;48.286;8.484;2022-07-23T04:15:11;11.07;;;9.48;;
39738;SDS011;25422;48.286;8.484;2022-07-23T04:17:37;10.10;;;9.10;;
39738;SDS011;25422;48.286;8.484;2022-07-23T04:20:02;10.55;;;9.18;;
39738;SDS011;25422;48.286;8.484;2022-07-23T04:22:28;10.43;;;9.32;;
39738;SDS011;25422;48.286;8.484;2022-07-23T04:24:53;9.68;;;8.75;;
39738;SDS011;25422;48.286;8.484;2022-07-23T04:27:18;10.02;;;8.90;;
39738;SDS011;25422;48.286;8.484;2022-07-23T04:29:44;11.02;;;9.50;;
39738;SDS011;25422;48.286;8.484;2022-07-23T04:32:09;13.32;;;8.80;;
39738;SDS011;25422;48.286;8.484;2022-07-23T04:34:34;9.90;;;8.88;;
39738;SDS011;25422;48.286;8.484;2022-07-23T04:37:00;13.45;;;9.27;;
39738;SDS011;25422;48.286;8.484;2022-07-23T04:39:25;11.38;;;9.35;;
39738;SDS011;25422;48.286;8.484;2022-07-23T04:41:50;10.20;;;8.82;;
39738;SDS011;25422;48.286;8.484;2022-07-23T04:44:16;10.00;;;8.95;;
39738;SDS011;25422;48.286;8.484;2022-07-23T04:46:41;9.75;;;8.80;;
39738;SDS011;25422;48.286;8.484;2022-07-23T04:49:07;10.30;;;9.30;;
39738;SDS011;25422;48.286;8.484;2022-07-23T04:51:32;9.82;;;8.77;;
39738;SDS011;25422;48.286;8.484;2022-07-23T04:53:57;9.85;;;8.65;;
39738;SDS011;25422;48.286;8.484;2022-07-23T04:56:23;9.73;;;8.73;;
39738;SDS011;25422;48.286;8.484;2022-07-23T04:58:48;9.70;;;8.70;;
39738;SDS011;25422;48.286;8.484;2022-07-23T05:01:13;13.75;;;8.55;;
39738;SDS011;25422;48.286;8.484;2022-07-23T05:03:39;10.60;;;8.52;;
39738;SDS011;25422;48.286;8.484;2022-07-23T05:06:04;9.15;;;8.25;;
39738;SDS011;25422;48.286;8.484;2022-07-23T05:08:29;10.75;;;7.63;;
39738;SDS011;25422;48.286;8.484;2022-07-23T05:10:55;12.43;;;7.68;;
39738;SDS011;25422;48.286;8.484;2022-07-23T05:13:20;9.18;;;7.78;;
39738;SDS011;25422;48.286;8.484;2022-07-23T05:15:45;9.18;;;6.93;;
39738;SDS011;25422;48.286;8.484;2022-07-23T05:18:11;8.00;;;6.75;;
39738;SDS011;25422;48.286;8.484;2022-07-23T05:20:37;8.00;;;7.30;;
39738;SDS011;25422;48.286;8.484;2022-07-23T05:23:03;8.73;;;6.82;;
39738;SDS011;25422;48.286;8.484;2022-07-23T05:25:28;7.22;;;6.38;;
39738;SDS011;25422;48.286;8.484;2022-07-23T05:27:54;8.55;;;6.78;;
39738;SDS011;25422;48.286;8.484;2022-07-23T05:30:19;8.15;;;6.65;;
39738;SDS011;25422;48.286;8.484;2022-07-23T05:32:44;12.13;;;5.70;;
39738;SDS011;25422;48.286;8.484;2022-07-23T05:35:10;7.57;;;6.30;;
39738;SDS011;25422;48.286;8.484;2022-07-23T05:37:35;8.85;;;6.20;;
39738;SDS011;25422;48.286;8.484;2022-07-23T05:40:10;8.60;;;6.70;;
39738;SDS011;25422;48.286;8.484;2022-07-23T05:42:39;7.93;;;5.82;;
39738;SDS011;25422;48.286;8.484;2022-07-23T05:45:05;6.32;;;5.72;;
39738;SDS011;25422;48.286;8.484;2022-07-23T05:47:41;7.80;;;5.82;;
39738;SDS011;25422;48.286;8.484;2022-07-23T05:50:11;8.10;;;6.13;;
39738;SDS011;25422;48.286;8.484;2022-07-23T05:52:38;6.82;;;5.65;;
39738;SDS011;25422;48.286;8.484;2022-07-23T05:55:03;7.78;;;5.10;;
39738;SDS011;25422;48.286;8.484;2022-07-23T05:57:29;6.07;;;5.47;;
39738;SDS011;25422;48.286;8.484;2022-07-23T05:59:54;5.57;;;5.03;;
39738;SDS011;25422;48.286;8.484;2022-07-23T06:02:20;6.50;;;5.60;;
39738;SDS011;25422;48.286;8.484;2022-07-23T06:04:45;6.97;;;6.00;;
39738;SDS011;25422;48.286;8.484;2022-07-23T06:07:11;5.97;;;5.38;;
39738;SDS011;25422;48.286;8.484;2022-07-23T06:09:36;6.93;;;6.07;;
39738;SDS011;25422;48.286;8.484;2022-07-23T06:12:01;7.90;;;6.22;;
39738;SDS011;25422;48.286;8.484;2022-07-23T06:14:27;8.75;;;6.22;;
39738;SDS011;25422;48.286;8.484;2022-07-23T06:16:52;8.52;;;6.93;;
39738;SDS011;25422;48.286;8.484;2022-07-23T06:19:17;9.07;;;6.13;;
39738;SDS011;25422;48.286;8.484;2022-07-23T06:21:43;6.82;;;6.13;;
39738;SDS011;25422;48.286;8.484;2022-07-23T06:24:08;6.80;;;6.00;;
39738;SDS011;25422;48.286;8.484;2022-07-23T06:26:33;7.55;;;5.93;;
39738;SDS011;25422;48.286;8.484;2022-07-23T06:28:59;6.38;;;5.53;;
39738;SDS011;25422;48.286;8.484;2022-07-23T06:31:24;7.90;;;6.15;;
39738;SDS011;25422;48.286;8.484;2022-07-23T06:33:49;6.25;;;5.43;;
39738;SDS011;25422;48.286;8.484;2022-07-23T06:36:15;6.65;;;5.32;;
39738;SDS011;25422;48.286;8.484;2022-07-23T06:38:40;6.03;;;5.32;;
39738;SDS011;25422;48.286;8.484;2022-07-23T06:41:05;6.00;;;5.40;;
39738;SDS011;25422;48.286;8.484;2022-07-23T06:43:31;7.97;;;5.40;;
39738;SDS011;25422;48.286;8.484;2022-07-23T06:45:56;5.95;;;5.07;;
39738;SDS011;25422;48.286;8.484;2022-07-23T06:48:21;7.35;;;5.15;;
39738;SDS011;25422;48.286;8.484;2022-07-23T06:50:47;5.65;;;5.13;;
39738;SDS011;25422;48.286;8.484;2022-07-23T06:53:13;6.30;;;5.70;;
39738;SDS011;25422;48.286;8.484;2022-07-23T06:55:38;7.50;;;5.30;;
39738;SDS011;25422;48.286;8.484;2022-07-23T06:58:04;6.07;;;5.25;;
39738;SDS011;25422;48.286;8.484;2022-07-23T07:00:30;6.75;;;5.25;;
39738;SDS011;25422;48.286;8.484;2022-07-23T07:02:56;7.50;;;5.80;;
39738;SDS011;25422;48.286;8.484;2022-07-23T07:05:21;9.45;;;5.90;;
39738;SDS011;25422;48.286;8.484;2022-07-23T07:07:48;8.80;;;5.80;;
39738;SDS011;25422;48.286;8.484;2022-07-23T07:10:13;11.13;;;6.40;;
39738;SDS011;25422;48.286;8.484;2022-07-23T07:12:41;7.20;;;6.10;;
39738;SDS011;25422;48.286;8.484;2022-07-23T07:15:06;5.53;;;5.03;;
39738;SDS011;25422;48.286;8.484;2022-07-23T07:17:32;7.93;;;5.38;;
39738;SDS011;25422;48.286;8.484;2022-07-23T07:19:57;8.07;;;5.53;;
39738;SDS011;25422;48.286;8.484;2022-07-23T07:22:22;7.35;;;6.07;;
39738;SDS011;25422;48.286;8.484;2022-07-23T07:24:48;6.07;;;5.50;;
39738;SDS011;25422;48.286;8.484;2022-07-23T07:27:13;7.30;;;6.13;;
39738;SDS011;25422;48.286;8.484;2022-07-23T07:29:38;6.93;;;5.90;;
39738;SDS011;25422;48.286;8.484;2022-07-23T07:32:04;8.07;;;5.97;;
39738;SDS011;25422;48.286;8.484;2022-07-23T07:34:29;6.20;;;5.60;;
39738;SDS011;25422;48.286;8.484;2022-07-23T07:36:55;8.57;;;5.97;;
39738;SDS011;25422;48.286;8.484;2022-07-23T07:39:20;6.60;;;6.00;;
39738;SDS011;25422;48.286;8.484;2022-07-23T07:41:45;6.65;;;5.82;;
39738;SDS011;25422;48.286;8.484;2022-07-23T07:44:10;12.90;;;5.80;;
39738;SDS011;25422;48.286;8.484;2022-07-23T07:46:36;8.77;;;5.70;;
39738;SDS011;25422;48.286;8.484;2022-07-23T07:49:01;6.32;;;5.30;;
39738;SDS011;25422;48.286;8.484;2022-07-23T07:51:26;6.10;;;4.75;;
39738;SDS011;25422;48.286;8.484;2022-07-23T07:53:52;5.95;;;4.88;;
39738;SDS011;25422;48.286;8.484;2022-07-23T07:56:17;6.30;;;4.78;;
39738;SDS011;25422;48.286;8.484;2022-07-23T07:58:42;9.63;;;4.90;;
39738;SDS011;25422;48.286;8.484;2022-07-23T08:01:08;5.53;;;4.90;;
39738;SDS011;25422;48.286;8.484;2022-07-23T08:03:33;5.13;;;4.63;;
39738;SDS011;25422;48.286;8.484;2022-07-23T08:05:58;5.57;;;4.50;;
39738;SDS011;25422;48.286;8.484;2022-07-23T08:08:24;4.72;;;4.22;;
39738;SDS011;25422;48.286;8.484;2022-07-23T08:10:49;6.70;;;4.70;;
39738;SDS011;25422;48.286;8.484;2022-07-23T08:13:15;4.70;;;4.20;;
39738;SDS011;25422;48.286;8.484;2022-07-23T08:15:41;5.10;;;4.40;;
39738;SDS011;25422;48.286;8.484;2022-07-23T08:18:07;5.50;;;4.40;;
39738;SDS011;25422;48.286;8.484;2022-07-23T08:20:33;5.22;;;4.72;;
39738;SDS011;25422;48.286;8.484;2022-07-23T08:22:59;6.75;;;4.47;;
39738;SDS011;25422;48.286;8.484;2022-07-23T08:25:30;5.70;;;4.32;;
39738;SDS011;25422;48.286;8.484;2022-07-23T08:27:58;4.78;;;4.20;;
39738;SDS011;25422;48.286;8.484;2022-07-23T08:30:24;4.15;;;3.75;;
39738;SDS011;25422;48.286;8.484;2022-07-23T08:32:52;6.75;;;3.97;;
39738;SDS011;25422;48.286;8.484;2022-07-23T08:35:38;5.55;;;3.70;;
39738;SDS011;25422;48.286;8.484;2022-07-23T08:38:09;6.15;;;4.30;;
39738;SDS011;25422;48.286;8.484;2022-07-23T08:40:40;4.60;;;3.97;;
39738;SDS011;25422;48.286;8.484;2022-07-23T08:43:11;4.32;;;3.90;;
39738;SDS011;25422;48.286;8.484;2022-07-23T08:45:39;4.68;;;3.83;;
39738;SDS011;25422;48.286;8.484;2022-07-23T08:48:11;4.90;;;4.38;;
39738;SDS011;25422;48.286;8.484;2022-07-23T08:50:39;5.13;;;4.13;;
39738;SDS011;25422;48.286;8.484;2022-07-23T08:53:08;4.90;;;4.43;;
39738;SDS011;25422;48.286;8.484;2022-07-23T08:55:34;4.32;;;3.92;;
39738;SDS011;25422;48.286;8.484;2022-07-23T08:58:00;4.13;;;3.72;;
39738;SDS011;25422;48.286;8.484;2022-07-23T09:00:25;4.30;;;3.90;;
39738;SDS011;25422;48.286;8.484;2022-07-23T09:02:51;5.38;;;4.13;;
39738;SDS011;25422;48.286;8.484;2022-07-23T09:05:16;5.20;;;4.55;;
39738;SDS011;25422;48.286;8.484;2022-07-23T09:13:31;5.53;;;4.10;;
39738;SDS011;25422;48.286;8.484;2022-07-23T09:15:59;4.32;;;3.92;;
39738;SDS011;25422;48.286;8.484;2022-07-23T09:18:57;4.93;;;3.85;;
39738;SDS011;25422;48.286;8.484;2022-07-23T09:21:24;7.03;;;4.30;;
39738;SDS011;25422;48.286;8.484;2022-07-23T09:31:56;4.85;;;4.18;;
39738;SDS011;25422;48.286;8.484;2022-07-23T09:34:32;6.60;;;4.43;;
39738;SDS011;25422;48.286;8.484;2022-07-23T09:37:09;5.13;;;4.60;;
39738;SDS011;25422;48.286;8.484;2022-07-23T09:39:37;4.88;;;4.45;;
39738;SDS011;25422;48.286;8.484;2022-07-23T09:42:13;8.32;;;4.25;;
39738;SDS011;25422;48.286;8.484;2022-07-23T09:44:44;5.05;;;4.40;;
39738;SDS011;25422;48.286;8.484;2022-07-23T09:47:11;5.68;;;4.05;;
39738;SDS011;25422;48.286;8.484;2022-07-23T09:49:36;4.85;;;4.22;;
39738;SDS011;25422;48.286;8.484;2022-07-23T09:52:03;5.80;;;4.65;;
39738;SDS011;25422;48.286;8.484;2022-07-23T09:56:57;5.78;;;4.75;;
39738;SDS011;25422;48.286;8.484;2022-07-23T09:59:29;6.25;;;4.55;;
39738;SDS011;25422;48.286;8.484;2022-07-23T10:01:56;6.53;;;4.88;;
39738;SDS011;25422;48.286;8.484;2022-07-23T10:04:24;6.80;;;4.63;;
39738;SDS011;25422;48.286;8.484;2022-07-23T10:06:52;5.35;;;4.85;;
39738;SDS011;25422;48.286;8.484;2022-07-23T10:09:24;4.55;;;3.97;;
39738;SDS011;25422;48.286;8.484;2022-07-23T10:11:52;5.20;;;4.70;;
39738;SDS011;25422;48.286;8.484;2022-07-23T10:14:23;5.22;;;4.65;;
39738;SDS011;25422;48.286;8.484;2022-07-23T10:16:50;5.00;;;4.50;;
39738;SDS011;25422;48.286;8.484;2022-07-23T10:19:16;5.53;;;5.03;;
39738;SDS011;25422;48.286;8.484;2022-07-23T10:21:46;5.10;;;4.60;;
39738;SDS011;25422;48.286;8.484;2022-07-23T10:24:26;5.60;;;5.05;;
39738;SDS011;25422;48.286;8.484;2022-07-23T10:29:58;6.10;;;4.70;;
39738;SDS011;25422;48.286;8.484;2022-07-23T10:35:10;6.35;;;5.07;;
39738;SDS011;25422;48.286;8.484;2022-07-23T10:37:44;5.65;;;5.18;;
39738;SDS011;25422;48.286;8.484;2022-07-23T10:40:18;5.65;;;4.65;;
39738;SDS011;25422;48.286;8.484;2022-07-23T10:42:47;5.75;;;5.00;;
39738;SDS011;25422;48.286;8.484;2022-07-23T10:45:24;5.80;;;5.15;;
39738;SDS011;25422;48.286;8.484;2022-07-23T10:47:54;6.88;;;4.72;;
39738;SDS011;25422;48.286;8.484;2022-07-23T10:50:35;8.88;;;5.07;;
39738;SDS011;25422;48.286;8.484;2022-07-23T10:53:07;6.88;;;5.47;;
39738;SDS011;25422;48.286;8.484;2022-07-23T10:57:58;6.37;;;5.50;;
39738;SDS011;25422;48.286;8.484;2022-07-23T11:00:25;5.63;;;5.05;;
39738;SDS011;25422;48.286;8.484;2022-07-23T11:02:55;6.45;;;5.72;;
39738;SDS011;25422;48.286;8.484;2022-07-23T11:05:24;6.15;;;5.55;;
39738;SDS011;25422;48.286;8.484;2022-07-23T11:10:32;5.85;;;5.22;;
39738;SDS011;25422;48.286;8.484;2022-07-23T11:26:40;7.43;;;5.07;;
39738;SDS011;25422;48.286;8.484;2022-07-23T11:34:34;5.22;;;4.72;;
39738;SDS011;25422;48.286;8.484;2022-07-23T11:37:08;6.55;;;4.93;;
39738;SDS011;25422;48.286;8.484;2022-07-23T11:39:36;7.30;;;5.80;;
39738;SDS011;25422;48.286;8.484;2022-07-23T11:42:02;6.35;;;5.60;;
39738;SDS011;25422;48.286;8.484;2022-07-23T11:44:32;6.10;;;4.93;;
39738;SDS011;25422;48.286;8.484;2022-07-23T11:49:27;5.45;;;4.95;;
39738;SDS011;25422;48.286;8.484;2022-07-23T11:54:54;8.43;;;6.03;;
39738;SDS011;25422;48.286;8.484;2022-07-23T11:57:24;7.90;;;5.32;;
39738;SDS011;25422;48.286;8.484;2022-07-23T11:59:52;7.63;;;5.72;;
39738;SDS011;25422;48.286;8.484;2022-07-23T12:02:21;6.45;;;5.38;;
39738;SDS011;25422;48.286;8.484;2022-07-23T12:04:48;7.32;;;5.53;;
39738;SDS011;25422;48.286;8.484;2022-07-23T12:07:49;7.18;;;5.45;;
39738;SDS011;25422;48.286;8.484;2022-07-23T12:12:48;5.57;;;5.07;;
39738;SDS011;25422;48.286;8.484;2022-07-23T12:15:15;6.47;;;5.50;;
39738;SDS011;25422;48.286;8.484;2022-07-23T12:17:42;7.03;;;6.20;;
39738;SDS011;25422;48.286;8.484;2022-07-23T12:20:11;8.73;;;5.63;;
39738;SDS011;25422;48.286;8.484;2022-07-23T12:22:43;7.55;;;5.65;;
39738;SDS011;25422;48.286;8.484;2022-07-23T12:25:11;6.30;;;5.70;;
39738;SDS011;25422;48.286;8.484;2022-07-23T12:27:38;6.20;;;5.13;;
39738;SDS011;25422;48.286;8.484;2022-07-23T12:32:50;5.65;;;5.13;;
39738;SDS011;25422;48.286;8.484;2022-07-23T12:35:17;7.27;;;4.87;;
39738;SDS011;25422;48.286;8.484;2022-07-23T12:37:45;5.93;;;5.15;;
39738;SDS011;25422;48.286;8.484;2022-07-23T12:40:30;5.75;;;5.05;;
39738;SDS011;25422;48.286;8.484;2022-07-23T12:45:27;7.63;;;5.18;;
39738;SDS011;25422;48.286;8.484;2022-07-23T12:48:06;5.88;;;5.32;;
39738;SDS011;25422;48.286;8.484;2022-07-23T12:53:11;7.18;;;5.20;;
39738;SDS011;25422;48.286;8.484;2022-07-23T12:56:01;8.57;;;5.30;;
39738;SDS011;25422;48.286;8.484;2022-07-23T13:04:11;6.05;;;5.45;;
39738;SDS011;25422;48.286;8.484;2022-07-23T13:06:42;5.50;;;5.00;;
39738;SDS011;25422;48.286;8.484;2022-07-23T13:09:09;6.78;;;5.45;;
39738;SDS011;25422;48.286;8.484;2022-07-23T13:11:37;9.02;;;5.50;;
39738;SDS011;25422;48.286;8.484;2022-07-23T13:14:04;5.28;;;4.75;;
39738;SDS011;25422;48.286;8.484;2022-07-23T13:16:29;7.28;;;5.03;;
39738;SDS011;25422;48.286;8.484;2022-07-23T13:18:56;5.75;;;4.80;;
39738;SDS011;25422;48.286;8.484;2022-07-23T13:21:22;5.30;;;4.85;;
39738;SDS011;25422;48.286;8.484;2022-07-23T13:23:48;8.63;;;5.35;;
39738;SDS011;25422;48.286;8.484;2022-07-23T13:26:13;6.25;;;5.03;;
39738;SDS011;25422;48.286;8.484;2022-07-23T13:28:38;5.32;;;4.82;;
39738;SDS011;25422;48.286;8.484;2022-07-23T13:31:04;4.80;;;4.35;;
39738;SDS011;25422;48.286;8.484;2022-07-23T13:33:29;5.88;;;4.95;;
39738;SDS011;25422;48.286;8.484;2022-07-23T13:35:55;5.07;;;4.57;;
39738;SDS011;25422;48.286;8.484;2022-07-23T13:38:20;6.50;;;4.70;;
39738;SDS011;25422;48.286;8.484;2022-07-23T13:40:46;7.13;;;5.07;;
39738;SDS011;25422;48.286;8.484;2022-07-23T13:43:14;5.18;;;4.68;;
39738;SDS011;25422;48.286;8.484;2022-07-23T13:45:41;5.78;;;5.03;;
39738;SDS011;25422;48.286;8.484;2022-07-23T13:48:07;5.30;;;4.80;;
39738;SDS011;25422;48.286;8.484;2022-07-23T13:50:34;6.20;;;5.05;;
39738;SDS011;25422;48.286;8.484;2022-07-23T13:53:01;8.98;;;5.88;;
39738;SDS011;25422;48.286;8.484;2022-07-23T13:55:28;5.50;;;5.00;;
39738;SDS011;25422;48.286;8.484;2022-07-23T13:57:54;7.45;;;5.07;;
39738;SDS011;25422;48.286;8.484;2022-07-23T14:00:19;6.70;;;5.45;;
39738;SDS011;25422;48.286;8.484;2022-07-23T14:02:45;7.15;;;5.53;;
39738;SDS011;25422;48.286;8.484;2022-07-23T14:05:10;5.97;;;5.35;;
39738;SDS011;25422;48.286;8.484;2022-07-23T14:07:36;7.10;;;5.38;;
39738;SDS011;25422;48.286;8.484;2022-07-23T14:10:05;6.18;;;5.20;;
39738;SDS011;25422;48.286;8.484;2022-07-23T14:12:31;7.55;;;5.70;;
39738;SDS011;25422;48.286;8.484;2022-07-23T14:14:57;6.30;;;4.93;;
39738;SDS011;25422;48.286;8.484;2022-07-23T14:17:22;8.70;;;5.57;;
39738;SDS011;25422;48.286;8.484;2022-07-23T14:19:48;7.13;;;5.82;;
39738;SDS011;25422;48.286;8.484;2022-07-23T14:22:13;6.97;;;5.38;;
39738;SDS011;25422;48.286;8.484;2022-07-23T14:24:39;8.00;;;5.45;;
39738;SDS011;25422;48.286;8.484;2022-07-23T14:27:04;6.40;;;5.65;;
39738;SDS011;25422;48.286;8.484;2022-07-23T14:29:30;6.15;;;5.43;;
39738;SDS011;25422;48.286;8.484;2022-07-23T14:31:56;5.80;;;5.20;;
39738;SDS011;25422;48.286;8.484;2022-07-23T14:34:22;6.18;;;5.57;;
39738;SDS011;25422;48.286;8.484;2022-07-23T14:36:48;5.53;;;4.95;;
39738;SDS011;25422;48.286;8.484;2022-07-23T14:39:13;6.57;;;5.45;;
39738;SDS011;25422;48.286;8.484;2022-07-23T14:41:38;7.35;;;5.43;;
39738;SDS011;25422;48.286;8.484;2022-07-23T14:44:04;6.57;;;5.97;;
39738;SDS011;25422;48.286;8.484;2022-07-23T14:46:30;7.97;;;5.63;;
39738;SDS011;25422;48.286;8.484;2022-07-23T14:48:55;7.15;;;5.53;;
39738;SDS011;25422;48.286;8.484;2022-07-23T14:51:21;5.57;;;5.07;;
39738;SDS011;25422;48.286;8.484;2022-07-23T14:53:46;9.45;;;5.82;;
39738;SDS011;25422;48.286;8.484;2022-07-23T14:56:11;7.28;;;5.20;;
39738;SDS011;25422;48.286;8.484;2022-07-23T14:58:38;6.63;;;5.18;;
39738;SDS011;25422;48.286;8.484;2022-07-23T15:01:03;6.15;;;5.35;;
39738;SDS011;25422;48.286;8.484;2022-07-23T15:03:29;6.28;;;5.20;;
39738;SDS011;25422;48.286;8.484;2022-07-23T15:05:54;6.13;;;5.45;;
39738;SDS011;25422;48.286;8.484;2022-07-23T15:08:19;9.32;;;5.70;;
39738;SDS011;25422;48.286;8.484;2022-07-23T15:10:45;8.07;;;5.63;;
39738;SDS011;25422;48.286;8.484;2022-07-23T15:13:10;7.05;;;5.85;;
39738;SDS011;25422;48.286;8.484;2022-07-23T15:15:35;6.68;;;5.70;;
39738;SDS011;25422;48.286;8.484;2022-07-23T15:18:00;7.63;;;5.63;;
39738;SDS011;25422;48.286;8.484;2022-07-23T15:20:26;7.93;;;5.72;;
39738;SDS011;25422;48.286;8.484;2022-07-23T15:22:51;6.22;;;5.03;;
39738;SDS011;25422;48.286;8.484;2022-07-23T15:25:16;7.00;;;5.80;;
39738;SDS011;25422;48.286;8.484;2022-07-23T15:27:42;5.50;;;5.00;;
39738;SDS011;25422;48.286;8.484;2022-07-23T15:30:07;7.57;;;5.75;;
39738;SDS011;25422;48.286;8.484;2022-07-23T15:32:33;6.05;;;5.53;;
39738;SDS011;25422;48.286;8.484;2022-07-23T15:34:58;7.57;;;5.60;;
39738;SDS011;25422;48.286;8.484;2022-07-23T15:37:24;6.03;;;5.30;;
39738;SDS011;25422;48.286;8.484;2022-07-23T15:39:49;6.28;;;5.40;;
39738;SDS011;25422;48.286;8.484;2022-07-23T15:42:15;7.20;;;5.30;;
39738;SDS011;25422;48.286;8.484;2022-07-23T15:44:41;6.03;;;5.43;;
39738;SDS011;25422;48.286;8.484;2022-07-23T15:47:11;7.32;;;5.57;;
39738;SDS011;25422;48.286;8.484;2022-07-23T15:49:38;6.90;;;5.55;;